sensor_id;sensor_type;location;lat;lon;timestamp;pressure;altitude;pressure_sealevel;temperature;humidity
60337;BME280;46978;50.288;28.624;2023-03-26T00:00:02;97606.60;;;8.07;100.00
60337;BME280;46978;50.288;28.624;2023-03-26T00:01:05;97591.21;;;8.04;100.00
60337;BME280;46978;50.288;28.624;2023-03-26T00:02:10;97601.59;;;8.03;100.00
60337;BME280;46978;50.288;28.624;2023-03-26T00:03:13;97595.68;;;7.99;100.00
60337;BME280;46978;50.288;28.624;2023-03-26T00:04:15;97594.02;;;7.98;100.00
60337;BME280;46978;50.288;28.624;2023-03-26T00:05:16;97590.57;;;7.98;100.00
60337;BME280;46978;50.288;28.624;2023-03-26T00:06:21;97590.68;;;7.95;100.00
60337;BME280;46978;50.288;28.624;2023-03-26T00:07:23;97605.29;;;7.96;100.00
60337;BME280;46978;50.288;28.624;2023-03-26T00:08:24;97592.44;;;7.94;100.00
60337;BME280;46978;50.288;28.624;2023-03-26T00:09:29;97590.80;;;7.92;100.00
60337;BME280;46978;50.288;28.624;2023-03-26T00:10:31;97601.98;;;7.92;100.00
60337;BME280;46978;50.288;28.624;2023-03-26T00:11:33;97602.88;;;7.91;100.00
60337;BME280;46978;50.288;28.624;2023-03-26T00:12:35;97602.88;;;7.91;100.00
60337;BME280;46978;50.288;28.624;2023-03-26T00:13:37;97600.29;;;7.91;100.00
60337;BME280;46978;50.288;28.624;2023-03-26T00:14:39;97600.29;;;7.91;100.00
60337;BME280;46978;50.288;28.624;2023-03-26T00:15:41;97596.88;;;7.90;100.00
60337;BME280;46978;50.288;28.624;2023-03-26T00:16:43;97599.45;;;7.90;100.00
60337;BME280;46978;50.288;28.624;2023-03-26T00:17:45;97600.29;;;7.91;100.00
60337;BME280;46978;50.288;28.624;2023-03-26T00:18:47;97605.51;;;7.89;100.00
60337;BME280;46978;50.288;28.624;2023-03-26T00:19:48;97610.73;;;7.88;100.00
60337;BME280;46978;50.288;28.624;2023-03-26T00:20:50;97608.14;;;7.88;100.00
60337;BME280;46978;50.288;28.624;2023-03-26T00:21:52;97615.01;;;7.89;100.00
60337;BME280;46978;50.288;28.624;2023-03-26T00:22:54;97608.25;;;7.85;100.00
60337;BME280;46978;50.288;28.624;2023-03-26T00:24:05;97610.78;;;7.86;100.00
60337;BME280;46978;50.288;28.624;2023-03-26T00:25:07;97616.86;;;7.85;100.00
60337;BME280;46978;50.288;28.624;2023-03-26T00:26:09;97615.22;;;7.83;100.00
60337;BME280;46978;50.288;28.624;2023-03-26T00:27:11;97611.86;;;7.81;100.00
60337;BME280;46978;50.288;28.624;2023-03-26T00:28:12;97605.00;;;7.80;100.00
60337;BME280;46978;50.288;28.624;2023-03-26T00:29:14;97609.39;;;7.78;100.00
60337;BME280;46978;50.288;28.624;2023-03-26T00:30:16;97606.00;;;7.76;100.00
60337;BME280;46978;50.288;28.624;2023-03-26T00:31:18;97609.55;;;7.73;100.00
60337;BME280;46978;50.288;28.624;2023-03-26T00:32:19;97608.69;;;7.72;100.00
60337;BME280;46978;50.288;28.624;2023-03-26T00:33:21;97609.66;;;7.70;100.00
60337;BME280;46978;50.288;28.624;2023-03-26T00:34:23;97603.69;;;7.68;100.00
60337;BME280;46978;50.288;28.624;2023-03-26T00:35:25;97605.48;;;7.66;100.00
60337;BME280;46978;50.288;28.624;2023-03-26T00:36:27;97611.58;;;7.63;100.00
60337;BME280;46978;50.288;28.624;2023-03-26T00:37:29;97609.05;;;7.62;100.00
60337;BME280;46978;50.288;28.624;2023-03-26T00:38:31;97608.23;;;7.61;100.00
60337;BME280;46978;50.288;28.624;2023-03-26T00:39:33;97620.30;;;7.61;100.00
60337;BME280;46978;50.288;28.624;2023-03-26T00:40:35;97606.58;;;7.59;100.00
60337;BME280;46978;50.288;28.624;2023-03-26T00:41:37;97617.82;;;7.58;100.00
60337;BME280;46978;50.288;28.624;2023-03-26T00:42:38;97612.77;;;7.54;100.00
60337;BME280;46978;50.288;28.624;2023-03-26T00:43:40;97616.17;;;7.55;100.00
60337;BME280;46978;50.288;28.624;2023-03-26T00:44:42;97617.06;;;7.54;100.00
60337;BME280;46978;50.288;28.624;2023-03-26T00:45:53;97621.45;;;7.52;100.00
60337;BME280;46978;50.288;28.624;2023-03-26T00:46:50;97612.05;;;7.49;100.00
60337;BME280;46978;50.288;28.624;2023-03-26T00:47:52;97624.13;;;7.49;100.00
60337;BME280;46978;50.288;28.624;2023-03-26T00:48:54;97621.66;;;7.46;100.00
60337;BME280;46978;50.288;28.624;2023-03-26T00:49:56;97620.81;;;7.45;100.00
60337;BME280;46978;50.288;28.624;2023-03-26T00:50:58;97619.95;;;7.45;100.00
60337;BME280;46978;50.288;28.624;2023-03-26T00:51:59;97619.07;;;7.46;100.00
60337;BME280;46978;50.288;28.624;2023-03-26T00:53:01;97619.12;;;7.44;100.00
60337;BME280;46978;50.288;28.624;2023-03-26T00:54:02;97614.80;;;7.45;100.00
60337;BME280;46978;50.288;28.624;2023-03-26T00:55:05;97619.95;;;7.45;100.00
60337;BME280;46978;50.288;28.624;2023-03-26T00:56:08;97625.11;;;7.45;100.00
60337;BME280;46978;50.288;28.624;2023-03-26T00:57:10;97624.28;;;7.44;100.00
60337;BME280;46978;50.288;28.624;2023-03-26T00:58:13;97624.28;;;7.44;100.00
60337;BME280;46978;50.288;28.624;2023-03-26T00:59:14;97626.86;;;7.44;100.00
60337;BME280;46978;50.288;28.624;2023-03-26T01:00:17;97627.70;;;7.45;100.00
60337;BME280;46978;50.288;28.624;2023-03-26T01:01:24;97627.70;;;7.45;100.00
60337;BME280;46978;50.288;28.624;2023-03-26T01:02:26;97631.92;;;7.47;100.00
60337;BME280;46978;50.288;28.624;2023-03-26T01:03:30;97626.70;;;7.49;100.00
60337;BME280;46978;50.288;28.624;2023-03-26T01:04:33;97632.66;;;7.51;100.00
60337;BME280;46978;50.288;28.624;2023-03-26T01:05:51;97633.56;;;7.50;100.00
60337;BME280;46978;50.288;28.624;2023-03-26T01:06:50;97626.70;;;7.49;100.00
60337;BME280;46978;50.288;28.624;2023-03-26T01:07:51;97635.34;;;7.48;100.00
60337;BME280;46978;50.288;28.624;2023-03-26T01:08:54;97631.97;;;7.46;100.00
60337;BME280;46978;50.288;28.624;2023-03-26T01:09:58;97626.86;;;7.44;100.00
60337;BME280;46978;50.288;28.624;2023-03-26T01:11:17;97637.23;;;7.43;100.00
60337;BME280;46978;50.288;28.624;2023-03-26T01:12:34;97633.77;;;7.44;100.00
60337;BME280;46978;50.288;28.624;2023-03-26T01:13:37;97633.82;;;7.42;100.00
60337;BME280;46978;50.288;28.624;2023-03-26T01:14:39;97633.77;;;7.44;100.00
60337;BME280;46978;50.288;28.624;2023-03-26T01:15:41;97630.42;;;7.40;100.00
60337;BME280;46978;50.288;28.624;2023-03-26T01:16:45;97630.42;;;7.40;100.00
60337;BME280;46978;50.288;28.624;2023-03-26T01:17:47;97632.17;;;7.40;100.00
60337;BME280;46978;50.288;28.624;2023-03-26T01:18:49;97623.55;;;7.41;100.00
60337;BME280;46978;50.288;28.624;2023-03-26T01:20:01;97633.01;;;7.40;100.00
60337;BME280;46978;50.288;28.624;2023-03-26T01:21:02;97631.34;;;7.39;100.00
60337;BME280;46978;50.288;28.624;2023-03-26T01:22:06;97629.59;;;7.40;100.00
60337;BME280;46978;50.288;28.624;2023-03-26T01:23:09;97638.17;;;7.40;100.00
60337;BME280;46978;50.288;28.624;2023-03-26T01:24:11;97627.02;;;7.40;100.00
60337;BME280;46978;50.288;28.624;2023-03-26T01:25:14;97629.59;;;7.40;100.00
60337;BME280;46978;50.288;28.624;2023-03-26T01:27:51;97635.64;;;7.39;100.00
60337;BME280;46978;50.288;28.624;2023-03-26T01:28:55;97636.45;;;7.41;100.00
60337;BME280;46978;50.288;28.624;2023-03-26T01:30:04;97630.42;;;7.40;100.00
60337;BME280;46978;50.288;28.624;2023-03-26T01:31:14;97627.84;;;7.40;100.00
60337;BME280;46978;50.288;28.624;2023-03-26T01:35:06;97644.20;;;7.41;100.00
60337;BME280;46978;50.288;28.624;2023-03-26T01:36:21;97628.72;;;7.41;100.00
60337;BME280;46978;50.288;28.624;2023-03-26T01:38:48;97632.96;;;7.42;100.00
60337;BME280;46978;50.288;28.624;2023-03-26T01:40:10;97627.80;;;7.42;100.00
60337;BME280;46978;50.288;28.624;2023-03-26T01:41:20;97625.22;;;7.42;100.00
60337;BME280;46978;50.288;28.624;2023-03-26T01:43:35;97626.13;;;7.41;100.00
60337;BME280;46978;50.288;28.624;2023-03-26T01:44:45;97618.39;;;7.41;100.00
60337;BME280;46978;50.288;28.624;2023-03-26T01:45:48;97625.32;;;7.39;100.00
60337;BME280;46978;50.288;28.624;2023-03-26T01:46:51;97621.08;;;7.38;100.00
60337;BME280;46978;50.288;28.624;2023-03-26T01:47:53;97627.95;;;7.37;100.00
60337;BME280;46978;50.288;28.624;2023-03-26T01:48:55;97618.49;;;7.38;100.00
60337;BME280;46978;50.288;28.624;2023-03-26T01:49:57;97617.63;;;7.37;100.00
60337;BME280;46978;50.288;28.624;2023-03-26T01:50:58;97618.55;;;7.36;100.00
60337;BME280;46978;50.288;28.624;2023-03-26T01:52:00;97619.42;;;7.35;100.00
60337;BME280;46978;50.288;28.624;2023-03-26T01:53:02;97623.81;;;7.33;100.00
60337;BME280;46978;50.288;28.624;2023-03-26T01:54:06;97625.52;;;7.32;100.00
60337;BME280;46978;50.288;28.624;2023-03-26T01:55:09;97621.28;;;7.31;100.00
60337;BME280;46978;50.288;28.624;2023-03-26T01:56:17;97626.48;;;7.30;100.00
60337;BME280;46978;50.288;28.624;2023-03-26T01:57:36;97619.68;;;7.27;100.00
60337;BME280;46978;50.288;28.624;2023-03-26T02:02:53;97620.08;;;7.15;100.00
60337;BME280;46978;50.288;28.624;2023-03-26T02:03:58;97620.96;;;7.14;100.00
60337;BME280;46978;50.288;28.624;2023-03-26T02:05:27;97623.64;;;7.11;100.00
60337;BME280;46978;50.288;28.624;2023-03-26T02:06:43;97628.02;;;7.09;100.00
60337;BME280;46978;50.288;28.624;2023-03-26T02:07:55;97629.00;;;7.05;100.00
60337;BME280;46978;50.288;28.624;2023-03-26T02:09:02;97627.42;;;7.00;100.00
60337;BME280;46978;50.288;28.624;2023-03-26T02:10:12;97627.52;;;6.97;100.00
60337;BME280;46978;50.288;28.624;2023-03-26T02:11:15;97626.80;;;6.92;100.00
60337;BME280;46978;50.288;28.624;2023-03-26T02:12:18;97626.95;;;6.88;100.00
60337;BME280;46978;50.288;28.624;2023-03-26T02:13:23;97623.68;;;6.82;100.00
60337;BME280;46978;50.288;28.624;2023-03-26T02:14:28;97627.23;;;6.78;100.00
60337;BME280;46978;50.288;28.624;2023-03-26T02:15:31;97627.33;;;6.75;100.00
60337;BME280;46978;50.288;28.624;2023-03-26T02:16:34;97631.74;;;6.72;100.00
60337;BME280;46978;50.288;28.624;2023-03-26T02:17:36;97624.15;;;6.67;100.00
60337;BME280;46978;50.288;28.624;2023-03-26T02:18:39;97623.41;;;6.63;100.00
60337;BME280;46978;50.288;28.624;2023-03-26T02:19:42;97628.70;;;6.59;100.00
60337;BME280;46978;50.288;28.624;2023-03-26T02:20:44;97627.96;;;6.55;100.00
60337;BME280;46978;50.288;28.624;2023-03-26T02:21:47;97628.93;;;6.51;100.00
60337;BME280;46978;50.288;28.624;2023-03-26T02:22:48;97635.88;;;6.49;100.00
60337;BME280;46978;50.288;28.624;2023-03-26T02:23:53;97634.27;;;6.45;100.00
60337;BME280;46978;50.288;28.624;2023-03-26T02:24:55;97644.61;;;6.43;100.00
60337;BME280;46978;50.288;28.624;2023-03-26T02:25:58;97641.30;;;6.40;100.00
60337;BME280;46978;50.288;28.624;2023-03-26T02:27:00;97646.48;;;6.38;100.00
60337;BME280;46978;50.288;28.624;2023-03-26T02:28:01;97635.41;;;6.35;100.00
60337;BME280;46978;50.288;28.624;2023-03-26T02:29:03;97636.36;;;6.32;100.00
60337;BME280;46978;50.288;28.624;2023-03-26T02:30:08;97641.60;;;6.29;100.00
60337;BME280;46978;50.288;28.624;2023-03-26T02:31:10;97645.94;;;6.27;100.00
60337;BME280;46978;50.288;28.624;2023-03-26T02:32:12;97642.61;;;6.23;100.00
60337;BME280;46978;50.288;28.624;2023-03-26T02:33:34;97652.87;;;6.25;100.00
60337;BME280;46978;50.288;28.624;2023-03-26T02:34:36;97648.55;;;6.25;100.00
60337;BME280;46978;50.288;28.624;2023-03-26T02:35:37;97647.63;;;6.28;100.00
60337;BME280;46978;50.288;28.624;2023-03-26T02:36:39;97651.86;;;6.31;100.00
60337;BME280;46978;50.288;28.624;2023-03-26T02:37:41;97649.20;;;6.34;100.00
60337;BME280;46978;50.288;28.624;2023-03-26T02:38:42;97649.98;;;6.36;100.00
60337;BME280;46978;50.288;28.624;2023-03-26T02:39:44;97649.06;;;6.38;100.00
60337;BME280;46978;50.288;28.624;2023-03-26T02:40:47;97650.69;;;6.41;100.00
60337;BME280;46978;50.288;28.624;2023-03-26T02:41:49;97645.49;;;6.42;100.00
60337;BME280;46978;50.288;28.624;2023-03-26T02:42:51;97653.18;;;6.44;100.00
60337;BME280;46978;50.288;28.624;2023-03-26T02:43:52;97650.60;;;6.44;100.00
60337;BME280;46978;50.288;28.624;2023-03-26T02:44:54;97658.33;;;6.44;100.00
60337;BME280;46978;50.288;28.624;2023-03-26T02:45:56;97652.30;;;6.45;100.00
60337;BME280;46978;50.288;28.624;2023-03-26T02:46:58;97660.86;;;6.45;100.00
60337;BME280;46978;50.288;28.624;2023-03-26T02:47:59;97657.41;;;6.46;100.00
60337;BME280;46978;50.288;28.624;2023-03-26T02:49:01;97660.77;;;6.49;100.00
60337;BME280;46978;50.288;28.624;2023-03-26T02:50:03;97658.16;;;6.50;100.00
60337;BME280;46978;50.288;28.624;2023-03-26T02:51:05;97664.13;;;6.52;100.00
60337;BME280;46978;50.288;28.624;2023-03-26T02:52:07;97659.77;;;6.54;100.00
60337;BME280;46978;50.288;28.624;2023-03-26T02:53:09;97654.52;;;6.57;100.00
60337;BME280;46978;50.288;28.624;2023-03-26T02:54:11;97659.63;;;6.59;100.00
60337;BME280;46978;50.288;28.624;2023-03-26T02:55:12;97657.88;;;6.59;100.00
60337;BME280;46978;50.288;28.624;2023-03-26T02:56:14;97661.30;;;6.60;100.00
60337;BME280;46978;50.288;28.624;2023-03-26T02:57:16;97652.77;;;6.58;100.00
60337;BME280;46978;50.288;28.624;2023-03-26T02:58:37;97657.97;;;6.56;100.00
60337;BME280;46978;50.288;28.624;2023-03-26T02:59:39;97655.39;;;6.56;100.00
60337;BME280;46978;50.288;28.624;2023-03-26T03:00:41;97672.60;;;6.56;100.00
60337;BME280;46978;50.288;28.624;2023-03-26T03:01:43;97665.75;;;6.55;100.00
60337;BME280;46978;50.288;28.624;2023-03-26T03:02:44;97672.60;;;6.56;100.00
60337;BME280;46978;50.288;28.624;2023-03-26T03:03:46;97676.92;;;6.55;100.00
60337;BME280;46978;50.288;28.624;2023-03-26T03:04:49;97681.12;;;6.58;100.00
60337;BME280;46978;50.288;28.624;2023-03-26T03:05:53;97675.09;;;6.59;100.00
60337;BME280;46978;50.288;28.624;2023-03-26T03:06:55;97675.87;;;6.61;100.00
60337;BME280;46978;50.288;28.624;2023-03-26T03:07:58;97677.53;;;6.63;100.00
60337;BME280;46978;50.288;28.624;2023-03-26T03:08:59;97679.20;;;6.64;100.00
60337;BME280;46978;50.288;28.624;2023-03-26T03:10:01;97679.20;;;6.64;100.00
60337;BME280;46978;50.288;28.624;2023-03-26T03:11:09;97677.48;;;6.65;100.00
60337;BME280;46978;50.288;28.624;2023-03-26T03:12:11;97681.69;;;6.68;100.00
60337;BME280;46978;50.288;28.624;2023-03-26T03:13:13;97685.13;;;6.68;100.00
60337;BME280;46978;50.288;28.624;2023-03-26T03:14:14;97685.13;;;6.68;100.00
60337;BME280;46978;50.288;28.624;2023-03-26T03:15:16;97687.57;;;6.73;100.00
60337;BME280;46978;50.288;28.624;2023-03-26T03:16:18;97689.19;;;6.75;100.00
60337;BME280;46978;50.288;28.624;2023-03-26T03:17:20;97688.27;;;6.78;100.00
60337;BME280;46978;50.288;28.624;2023-03-26T03:18:22;97686.48;;;6.80;100.00
60337;BME280;46978;50.288;28.624;2023-03-26T03:19:24;97685.51;;;6.84;100.00
60337;BME280;46978;50.288;28.624;2023-03-26T03:20:25;97682.05;;;6.85;100.00
60337;BME280;46978;50.288;28.624;2023-03-26T03:21:28;97687.11;;;6.88;100.00
60337;BME280;46978;50.288;28.624;2023-03-26T03:22:29;97686.16;;;6.91;100.00
60337;BME280;46978;50.288;28.624;2023-03-26T03:23:31;97691.17;;;6.95;100.00
60337;BME280;46978;50.288;28.624;2023-03-26T03:24:33;97695.41;;;6.98;100.00
60337;BME280;46978;50.288;28.624;2023-03-26T03:25:35;97693.61;;;7.00;100.00
60337;BME280;46978;50.288;28.624;2023-03-26T03:26:37;97695.27;;;7.03;100.00
60337;BME280;46978;50.288;28.624;2023-03-26T03:27:40;97693.52;;;7.03;100.00
60337;BME280;46978;50.288;28.624;2023-03-26T03:28:42;97701.11;;;7.08;100.00
60337;BME280;46978;50.288;28.624;2023-03-26T03:29:46;97691.61;;;7.10;100.00
60337;BME280;46978;50.288;28.624;2023-03-26T03:30:48;97691.56;;;7.11;100.00
60337;BME280;46978;50.288;28.624;2023-03-26T03:31:49;97692.30;;;7.15;100.00
60337;BME280;46978;50.288;28.624;2023-03-26T03:32:51;97689.67;;;7.16;100.00
60337;BME280;46978;50.288;28.624;2023-03-26T03:33:53;97692.20;;;7.18;100.00
60337;BME280;46978;50.288;28.624;2023-03-26T03:34:54;97694.69;;;7.21;100.00
60337;BME280;46978;50.288;28.624;2023-03-26T03:35:56;97692.06;;;7.23;100.00
60337;BME280;46978;50.288;28.624;2023-03-26T03:36:58;97694.59;;;7.24;100.00
60337;BME280;46978;50.288;28.624;2023-03-26T03:37:59;97689.39;;;7.26;100.00
60337;BME280;46978;50.288;28.624;2023-03-26T03:39:01;97690.22;;;7.26;100.00
60337;BME280;46978;50.288;28.624;2023-03-26T03:40:06;97682.43;;;7.28;100.00
60337;BME280;46978;50.288;28.624;2023-03-26T03:41:08;97690.13;;;7.29;100.00
60337;BME280;46978;50.288;28.624;2023-03-26T03:43:15;97658.48;;;7.24;100.00
60337;BME280;46978;50.288;28.624;2023-03-26T03:44:17;97684.81;;;7.34;100.00
60337;BME280;46978;50.288;28.624;2023-03-26T03:45:18;97689.09;;;7.35;100.00
60337;BME280;46978;50.288;28.624;2023-03-26T03:46:20;97683.05;;;7.36;100.00
60337;BME280;46978;50.288;28.624;2023-03-26T03:47:22;97681.25;;;7.38;100.00
60337;BME280;46978;50.288;28.624;2023-03-26T03:48:23;97677.80;;;7.39;100.00
60337;BME280;46978;50.288;28.624;2023-03-26T03:49:25;97677.74;;;7.41;100.00
60337;BME280;46978;50.288;28.624;2023-03-26T03:50:27;97685.44;;;7.42;100.00
60337;BME280;46978;50.288;28.624;2023-03-26T03:51:30;97677.69;;;7.42;100.00
60337;BME280;46978;50.288;28.624;2023-03-26T03:52:32;97678.52;;;7.43;100.00
60337;BME280;46978;50.288;28.624;2023-03-26T03:53:34;97680.22;;;7.44;100.00
60337;BME280;46978;50.288;28.624;2023-03-26T03:54:35;97690.55;;;7.44;100.00
60337;BME280;46978;50.288;28.624;2023-03-26T03:55:37;97690.55;;;7.44;100.00
60337;BME280;46978;50.288;28.624;2023-03-26T03:56:39;97688.84;;;7.43;100.00
60337;BME280;46978;50.288;28.624;2023-03-26T03:57:40;97693.13;;;7.44;100.00
60337;BME280;46978;50.288;28.624;2023-03-26T03:58:42;97688.84;;;7.43;100.00
60337;BME280;46978;50.288;28.624;2023-03-26T03:59:44;97692.21;;;7.45;100.00
60337;BME280;46978;50.288;28.624;2023-03-26T04:00:46;97690.50;;;7.45;100.00
60337;BME280;46978;50.288;28.624;2023-03-26T04:01:48;97681.89;;;7.45;100.00
60337;BME280;46978;50.288;28.624;2023-03-26T04:02:50;97681.89;;;7.45;100.00
60337;BME280;46978;50.288;28.624;2023-03-26T04:03:51;97692.21;;;7.45;100.00
60337;BME280;46978;50.288;28.624;2023-03-26T04:04:53;97682.80;;;7.44;100.00
60337;BME280;46978;50.288;28.624;2023-03-26T04:05:56;97683.59;;;7.46;100.00
60337;BME280;46978;50.288;28.624;2023-03-26T04:06:58;97681.00;;;7.46;100.00
60337;BME280;46978;50.288;28.624;2023-03-26T04:08:00;97683.59;;;7.46;100.00
60337;BME280;46978;50.288;28.624;2023-03-26T04:09:02;97683.48;;;7.49;100.00
60337;BME280;46978;50.288;28.624;2023-03-26T04:10:04;97686.85;;;7.51;100.00
60337;BME280;46978;50.288;28.624;2023-03-26T04:11:26;97686.02;;;7.50;100.00
60337;BME280;46978;50.288;28.624;2023-03-26T04:12:30;97683.39;;;7.52;100.00
60337;BME280;46978;50.288;28.624;2023-03-26T04:13:32;97685.97;;;7.52;100.00
60337;BME280;46978;50.288;28.624;2023-03-26T04:14:33;97692.83;;;7.53;100.00
60337;BME280;46978;50.288;28.624;2023-03-26T04:15:35;97692.83;;;7.53;100.00
60337;BME280;46978;50.288;28.624;2023-03-26T04:16:37;97690.25;;;7.53;100.00
60337;BME280;46978;50.288;28.624;2023-03-26T04:17:38;97690.25;;;7.53;100.00
60337;BME280;46978;50.288;28.624;2023-03-26T04:18:40;97693.71;;;7.52;100.00
60337;BME280;46978;50.288;28.624;2023-03-26T04:19:42;97698.04;;;7.51;100.00
60337;BME280;46978;50.288;28.624;2023-03-26T04:20:44;97692.06;;;7.49;100.00
60337;BME280;46978;50.288;28.624;2023-03-26T04:21:46;97692.92;;;7.50;100.00
60337;BME280;46978;50.288;28.624;2023-03-26T04:22:47;97697.17;;;7.51;100.00
60337;BME280;46978;50.288;28.624;2023-03-26T04:23:49;97702.34;;;7.51;100.00
60337;BME280;46978;50.288;28.624;2023-03-26T04:24:51;97700.62;;;7.51;100.00
60337;BME280;46978;50.288;28.624;2023-03-26T04:25:53;97701.45;;;7.52;100.00
60337;BME280;46978;50.288;28.624;2023-03-26T04:26:56;97693.71;;;7.52;100.00
60337;BME280;46978;50.288;28.624;2023-03-26T04:28:00;97690.30;;;7.51;100.00
60337;BME280;46978;50.288;28.624;2023-03-26T04:29:05;97690.34;;;7.50;100.00
60337;BME280;46978;50.288;28.624;2023-03-26T04:30:10;97694.59;;;7.51;100.00
60337;BME280;46978;50.288;28.624;2023-03-26T04:32:37;97688.70;;;7.47;100.00
60337;BME280;46978;50.288;28.624;2023-03-26T04:33:41;97702.44;;;7.48;100.00
60337;BME280;46978;50.288;28.624;2023-03-26T04:34:44;97699.07;;;7.46;100.00
60337;BME280;46978;50.288;28.624;2023-03-26T04:35:47;97706.81;;;7.46;100.00
60337;BME280;46978;50.288;28.624;2023-03-26T04:36:51;97706.03;;;7.44;100.00
60337;BME280;46978;50.288;28.624;2023-03-26T04:37:53;97707.75;;;7.43;100.00
60337;BME280;46978;50.288;28.624;2023-03-26T04:38:55;97706.13;;;7.41;100.00
60337;BME280;46978;50.288;28.624;2023-03-26T04:39:58;97707.06;;;7.38;100.00
60337;BME280;46978;50.288;28.624;2023-03-26T04:41:00;97710.52;;;7.37;100.00
60337;BME280;46978;50.288;28.624;2023-03-26T04:42:02;97711.39;;;7.38;100.00
60337;BME280;46978;50.288;28.624;2023-03-26T04:43:04;97712.22;;;7.38;100.00
60337;BME280;46978;50.288;28.624;2023-03-26T04:44:06;97713.00;;;7.40;100.00
60337;BME280;46978;50.288;28.624;2023-03-26T04:45:08;97718.27;;;7.37;100.00
60337;BME280;46978;50.288;28.624;2023-03-26T04:46:10;97719.12;;;7.38;100.00
60337;BME280;46978;50.288;28.624;2023-03-26T04:47:12;97720.02;;;7.36;100.00
60337;BME280;46978;50.288;28.624;2023-03-26T04:48:13;97719.22;;;7.34;100.00
60337;BME280;46978;50.288;28.624;2023-03-26T04:49:15;97726.09;;;7.34;100.00
60337;BME280;46978;50.288;28.624;2023-03-26T04:50:17;97729.55;;;7.34;100.00
60337;BME280;46978;50.288;28.624;2023-03-26T04:51:23;97723.47;;;7.35;100.00
60337;BME280;46978;50.288;28.624;2023-03-26T04:52:24;97723.47;;;7.35;100.00
60337;BME280;46978;50.288;28.624;2023-03-26T04:53:26;97726.97;;;7.34;100.00
60337;BME280;46978;50.288;28.624;2023-03-26T04:54:31;97722.69;;;7.33;100.00
60337;BME280;46978;50.288;28.624;2023-03-26T04:55:50;97724.44;;;7.33;100.00
60337;BME280;46978;50.288;28.624;2023-03-26T04:57:59;97722.83;;;7.29;100.00
60337;BME280;46978;50.288;28.624;2023-03-26T04:59:24;97730.62;;;7.27;100.00
60337;BME280;46978;50.288;28.624;2023-03-26T05:00:25;97735.83;;;7.26;100.00
60337;BME280;46978;50.288;28.624;2023-03-26T05:01:28;97733.34;;;7.23;100.00
60337;BME280;46978;50.288;28.624;2023-03-26T05:02:31;97737.66;;;7.22;100.00
60337;BME280;46978;50.288;28.624;2023-03-26T05:03:33;97748.95;;;7.18;100.00
60337;BME280;46978;50.288;28.624;2023-03-26T05:04:35;97739.61;;;7.14;100.00
60337;BME280;46978;50.288;28.624;2023-03-26T05:05:37;97743.11;;;7.13;100.00
60337;BME280;46978;50.288;28.624;2023-03-26T05:06:40;97745.69;;;7.13;100.00
60337;BME280;46978;50.288;28.624;2023-03-26T05:07:42;97746.56;;;7.12;100.00
60337;BME280;46978;50.288;28.624;2023-03-26T05:08:44;97751.72;;;7.12;100.00
60337;BME280;46978;50.288;28.624;2023-03-26T05:09:45;97749.09;;;7.13;100.00
60337;BME280;46978;50.288;28.624;2023-03-26T05:10:47;97746.52;;;7.13;100.00
60337;BME280;46978;50.288;28.624;2023-03-26T05:11:49;97748.22;;;7.14;100.00
60337;BME280;46978;50.288;28.624;2023-03-26T05:13:11;97744.68;;;7.17;100.00
60337;BME280;46978;50.288;28.624;2023-03-26T05:14:13;97749.00;;;7.16;100.00
60337;BME280;46978;50.288;28.624;2023-03-26T05:15:14;97751.59;;;7.16;100.00
60337;BME280;46978;50.288;28.624;2023-03-26T05:16:16;97754.12;;;7.18;100.00
60337;BME280;46978;50.288;28.624;2023-03-26T05:17:18;97758.30;;;7.22;100.00
60337;BME280;46978;50.288;28.624;2023-03-26T05:18:20;97759.23;;;7.20;100.00
60337;BME280;46978;50.288;28.624;2023-03-26T05:19:22;97762.73;;;7.17;100.00
60337;BME280;46978;50.288;28.624;2023-03-26T05:20:26;97766.23;;;7.16;100.00
60337;BME280;46978;50.288;28.624;2023-03-26T05:21:28;97773.10;;;7.15;100.00
60337;BME280;46978;50.288;28.624;2023-03-26T05:22:30;97767.06;;;7.16;100.00
60337;BME280;46978;50.288;28.624;2023-03-26T05:23:32;97763.52;;;7.21;100.00
60337;BME280;46978;50.288;28.624;2023-03-26T05:24:34;97766.05;;;7.22;100.00
60337;BME280;46978;50.288;28.624;2023-03-26T05:25:35;97765.17;;;7.22;100.00
60337;BME280;46978;50.288;28.624;2023-03-26T05:26:37;97767.76;;;7.22;100.00
60337;BME280;46978;50.288;28.624;2023-03-26T05:27:39;97774.62;;;7.23;100.00
60337;BME280;46978;50.288;28.624;2023-03-26T05:28:41;97777.16;;;7.24;100.00
60337;BME280;46978;50.288;28.624;2023-03-26T05:29:42;97775.41;;;7.25;100.00
60337;BME280;46978;50.288;28.624;2023-03-26T05:30:44;97776.22;;;7.27;100.00
60337;BME280;46978;50.288;28.624;2023-03-26T05:31:46;97775.36;;;7.26;100.00
60337;BME280;46978;50.288;28.624;2023-03-26T05:32:48;97773.64;;;7.27;100.00
60337;BME280;46978;50.288;28.624;2023-03-26T05:33:50;97779.59;;;7.29;100.00
60337;BME280;46978;50.288;28.624;2023-03-26T05:34:52;97780.42;;;7.29;100.00
60337;BME280;46978;50.288;28.624;2023-03-26T05:36:05;97776.97;;;7.30;100.00
60337;BME280;46978;50.288;28.624;2023-03-26T05:37:08;97771.71;;;7.33;100.00
60337;BME280;46978;50.288;28.624;2023-03-26T05:38:10;97778.52;;;7.36;100.00
60337;BME280;46978;50.288;28.624;2023-03-26T05:39:11;97775.03;;;7.37;100.00
60337;BME280;46978;50.288;28.624;2023-03-26T05:40:16;97774.94;;;7.40;100.00
60337;BME280;46978;50.288;28.624;2023-03-26T05:41:17;97774.01;;;7.43;100.00
60337;BME280;46978;50.288;28.624;2023-03-26T05:42:19;97773.08;;;7.45;100.00
60337;BME280;46978;50.288;28.624;2023-03-26T05:43:21;97770.45;;;7.47;100.00
60337;BME280;46978;50.288;28.624;2023-03-26T05:44:23;97772.12;;;7.48;100.00
60337;BME280;46978;50.288;28.624;2023-03-26T05:45:25;97771.33;;;7.46;100.00